sensor_id;sensor_type;location;lat;lon;timestamp;pressure;altitude;pressure_sealevel;temperature;humidity
7524;BME280;3803;51.666;7.630;2023-03-16T00:00:19;101407.81;;;1.48;57.03
7524;BME280;3803;51.666;7.630;2023-03-16T00:00:40;101395.50;;;1.44;57.50
7524;BME280;3803;51.666;7.630;2023-03-16T00:01:06;101390.91;;;1.40;57.41
7524;BME280;3803;51.666;7.630;2023-03-16T00:01:26;101381.50;;;1.40;57.37
7524;BME280;3803;51.666;7.630;2023-03-16T00:01:47;101395.50;;;1.44;57.36
7524;BME280;3803;51.666;7.630;2023-03-16T00:02:09;101414.22;;;1.53;57.32
7524;BME280;3803;51.666;7.630;2023-03-16T00:02:30;101398.84;;;1.43;57.30
7524;BME280;3803;51.666;7.630;2023-03-16T00:03:07;101412.53;;;1.54;57.42
7524;BME280;3803;51.666;7.630;2023-03-16T00:03:27;101393.25;;;1.36;57.01
7524;BME280;3803;51.666;7.630;2023-03-16T00:03:49;101417.22;;;1.47;57.61
7524;BME280;3803;51.666;7.630;2023-03-16T00:04:10;101411.19;;;1.47;57.17
7524;BME280;3803;51.666;7.630;2023-03-16T00:04:31;101403.78;;;1.40;56.98
7524;BME280;3803;51.666;7.630;2023-03-16T00:04:52;101392.09;;;1.33;57.48
7524;BME280;3803;51.666;7.630;2023-03-16T00:05:14;101419.56;;;1.44;57.37
7524;BME280;3803;51.666;7.630;2023-03-16T00:05:35;101395.59;;;1.33;57.08
7524;BME280;3803;51.666;7.630;2023-03-16T00:05:55;101397.94;;;1.30;57.28
7524;BME280;3803;51.666;7.630;2023-03-16T00:06:16;101398.03;;;1.32;57.58
7524;BME280;3803;51.666;7.630;2023-03-16T00:06:36;101412.94;;;1.36;57.01
7524;BME280;3803;51.666;7.630;2023-03-16T00:06:57;101415.38;;;1.34;57.62
7524;BME280;3803;51.666;7.630;2023-03-16T00:07:18;101392.56;;;1.27;57.55
7524;BME280;3803;51.666;7.630;2023-03-16T00:07:39;101383.63;;;1.22;57.26
7524;BME280;3803;51.666;7.630;2023-03-16T00:08:01;101401.53;;;1.32;57.63
7524;BME280;3803;51.666;7.630;2023-03-16T00:08:22;101395.56;;;1.21;57.40
7524;BME280;3803;51.666;7.630;2023-03-16T00:08:43;101391.84;;;1.18;57.40
7524;BME280;3803;51.666;7.630;2023-03-16T00:09:03;101395.69;;;1.23;57.91
7524;BME280;3803;51.666;7.630;2023-03-16T00:09:24;101397.22;;;1.21;57.52
7524;BME280;3803;51.666;7.630;2023-03-16T00:09:50;101409.53;;;1.25;57.73
7524;BME280;3803;51.666;7.630;2023-03-16T00:10:11;101386.25;;;1.12;57.64
7524;BME280;3803;51.666;7.630;2023-03-16T00:10:32;101405.72;;;1.20;57.60
7524;BME280;3803;51.666;7.630;2023-03-16T00:10:53;101395.00;;;1.14;57.93
7524;BME280;3803;51.666;7.630;2023-03-16T00:11:13;101409.31;;;1.22;57.96
7524;BME280;3803;51.666;7.630;2023-03-16T00:11:34;101397.31;;;1.11;57.78
7524;BME280;3803;51.666;7.630;2023-03-16T00:11:59;101407.50;;;1.21;57.75
7524;BME280;3803;51.666;7.630;2023-03-16T00:12:22;101399.66;;;1.07;58.06
7524;BME280;3803;51.666;7.630;2023-03-16T00:12:43;101401.00;;;1.14;58.02
7524;BME280;3803;51.666;7.630;2023-03-16T00:13:04;101407.94;;;1.15;58.00
7524;BME280;3803;51.666;7.630;2023-03-16T00:13:24;101399.75;;;1.09;58.22
7524;BME280;3803;51.666;7.630;2023-03-16T00:13:45;101409.28;;;1.10;57.99
7524;BME280;3803;51.666;7.630;2023-03-16T00:14:06;101391.47;;;1.01;58.40
7524;BME280;3803;51.666;7.630;2023-03-16T00:14:26;101396.72;;;1.03;58.09
7524;BME280;3803;51.666;7.630;2023-03-16T00:14:48;101410.81;;;1.08;58.12
7524;BME280;3803;51.666;7.630;2023-03-16T00:15:10;101420.56;;;1.12;58.31
7524;BME280;3803;51.666;7.630;2023-03-16T00:15:31;101391.47;;;1.01;58.24
7524;BME280;3803;51.666;7.630;2023-03-16T00:15:56;101411.06;;;1.11;58.16
7524;BME280;3803;51.666;7.630;2023-03-16T00:16:17;101396.59;;;1.01;58.18
7524;BME280;3803;51.666;7.630;2023-03-16T00:16:38;101404.44;;;1.03;58.30
7524;BME280;3803;51.666;7.630;2023-03-16T00:16:58;101396.13;;;0.95;58.45
7524;BME280;3803;51.666;7.630;2023-03-16T00:17:19;101398.81;;;0.97;58.22
7524;BME280;3803;51.666;7.630;2023-03-16T00:17:40;101392.56;;;0.93;58.40
7524;BME280;3803;51.666;7.630;2023-03-16T00:18:01;101405.22;;;1.02;58.07
7524;BME280;3803;51.666;7.630;2023-03-16T00:18:23;101402.03;;;0.94;58.52
7524;BME280;3803;51.666;7.630;2023-03-16T00:18:47;101389.75;;;0.90;58.69
7524;BME280;3803;51.666;7.630;2023-03-16T00:19:07;101402.97;;;0.94;58.50
7524;BME280;3803;51.666;7.630;2023-03-16T00:19:28;101407.31;;;0.96;58.90
7524;BME280;3803;51.666;7.630;2023-03-16T00:19:53;101399.47;;;0.94;58.23
7524;BME280;3803;51.666;7.630;2023-03-16T00:20:17;101406.53;;;0.97;58.59
7524;BME280;3803;51.666;7.630;2023-03-16T00:20:38;101393.97;;;0.89;58.89
7524;BME280;3803;51.666;7.630;2023-03-16T00:21:00;101396.69;;;0.91;58.82
7524;BME280;3803;51.666;7.630;2023-03-16T00:21:24;101388.50;;;0.85;58.69
7524;BME280;3803;51.666;7.630;2023-03-16T00:21:45;101406.97;;;0.91;58.67
7524;BME280;3803;51.666;7.630;2023-03-16T00:22:05;101399.78;;;0.87;58.56
7524;BME280;3803;51.666;7.630;2023-03-16T00:22:28;101395.28;;;0.84;58.70
7524;BME280;3803;51.666;7.630;2023-03-16T00:22:49;101398.41;;;0.80;58.51
7524;BME280;3803;51.666;7.630;2023-03-16T00:23:10;101399.41;;;0.82;58.81
7524;BME280;3803;51.666;7.630;2023-03-16T00:23:31;101404.91;;;0.87;59.05
7524;BME280;3803;51.666;7.630;2023-03-16T00:23:55;101388.66;;;0.76;58.90
7524;BME280;3803;51.666;7.630;2023-03-16T00:24:16;101393.81;;;0.76;59.12
7524;BME280;3803;51.666;7.630;2023-03-16T00:24:41;101401.88;;;0.80;58.73
7524;BME280;3803;51.666;7.630;2023-03-16T00:25:11;101396.28;;;0.74;59.01
7524;BME280;3803;51.666;7.630;2023-03-16T00:25:33;101390.88;;;0.71;59.30
7524;BME280;3803;51.666;7.630;2023-03-16T00:25:55;101406.00;;;0.78;59.15
7524;BME280;3803;51.666;7.630;2023-03-16T00:26:18;101396.00;;;0.71;59.11
7524;BME280;3803;51.666;7.630;2023-03-16T00:26:38;101391.00;;;0.73;59.07
7524;BME280;3803;51.666;7.630;2023-03-16T00:26:59;101392.78;;;0.74;59.21
7524;BME280;3803;51.666;7.630;2023-03-16T00:27:22;101390.66;;;0.68;59.20
7524;BME280;3803;51.666;7.630;2023-03-16T00:27:42;101377.53;;;0.65;59.33
7524;BME280;3803;51.666;7.630;2023-03-16T00:28:03;101400.38;;;0.72;59.21
7524;BME280;3803;51.666;7.630;2023-03-16T00:28:26;101386.94;;;0.64;59.28
7524;BME280;3803;51.666;7.630;2023-03-16T00:28:47;101397.03;;;0.73;59.52
7524;BME280;3803;51.666;7.630;2023-03-16T00:29:07;101395.78;;;0.68;59.47
7524;BME280;3803;51.666;7.630;2023-03-16T00:29:29;101389.63;;;0.66;59.42
7524;BME280;3803;51.666;7.630;2023-03-16T00:29:54;101385.38;;;0.66;59.45
7524;BME280;3803;51.666;7.630;2023-03-16T00:30:17;101378.88;;;0.60;59.31
7524;BME280;3803;51.666;7.630;2023-03-16T00:30:38;101377.97;;;0.59;59.53
7524;BME280;3803;51.666;7.630;2023-03-16T00:30:59;101383.25;;;0.61;59.20
7524;BME280;3803;51.666;7.630;2023-03-16T00:31:20;101389.38;;;0.63;59.37
7524;BME280;3803;51.666;7.630;2023-03-16T00:31:44;101391.81;;;0.61;59.32
7524;BME280;3803;51.666;7.630;2023-03-16T00:32:04;101385.53;;;0.58;59.52
7524;BME280;3803;51.666;7.630;2023-03-16T00:32:28;101377.84;;;0.58;59.60
7524;BME280;3803;51.666;7.630;2023-03-16T00:32:48;101384.91;;;0.60;59.67
7524;BME280;3803;51.666;7.630;2023-03-16T00:33:11;101391.44;;;0.67;60.11
7524;BME280;3803;51.666;7.630;2023-03-16T00:33:32;101387.38;;;0.59;59.63
7524;BME280;3803;51.666;7.630;2023-03-16T00:33:58;101369.91;;;0.55;59.66
7524;BME280;3803;51.666;7.630;2023-03-16T00:34:19;101375.03;;;0.55;59.54
7524;BME280;3803;51.666;7.630;2023-03-16T00:34:39;101374.16;;;0.54;59.80
7524;BME280;3803;51.666;7.630;2023-03-16T00:35:01;101376.97;;;0.57;59.78
7524;BME280;3803;51.666;7.630;2023-03-16T00:35:24;101378.63;;;0.57;59.67
7524;BME280;3803;51.666;7.630;2023-03-16T00:35:46;101395.66;;;0.66;59.74
7524;BME280;3803;51.666;7.630;2023-03-16T00:36:10;101367.22;;;0.53;59.79
7524;BME280;3803;51.666;7.630;2023-03-16T00:36:31;101382.97;;;0.58;59.44
7524;BME280;3803;51.666;7.630;2023-03-16T00:36:53;101374.38;;;0.57;59.78
7524;BME280;3803;51.666;7.630;2023-03-16T00:37:15;101379.66;;;0.59;59.83
7524;BME280;3803;51.666;7.630;2023-03-16T00:37:36;101363.41;;;0.48;59.74
7524;BME280;3803;51.666;7.630;2023-03-16T00:37:58;101375.81;;;0.53;59.80
7524;BME280;3803;51.666;7.630;2023-03-16T00:38:19;101379.41;;;0.56;60.03
7524;BME280;3803;51.666;7.630;2023-03-16T00:38:41;101377.47;;;0.53;60.10
7524;BME280;3803;51.666;7.630;2023-03-16T00:39:07;101390.03;;;0.60;59.99
7524;BME280;3803;51.666;7.630;2023-03-16T00:39:30;101380.19;;;0.55;60.04
7524;BME280;3803;51.666;7.630;2023-03-16T00:39:55;101377.47;;;0.53;59.86
7524;BME280;3803;51.666;7.630;2023-03-16T00:40:15;101374.81;;;0.51;60.13
7524;BME280;3803;51.666;7.630;2023-03-16T00:40:36;101373.53;;;0.46;60.17
7524;BME280;3803;51.666;7.630;2023-03-16T00:40:57;101381.59;;;0.51;59.95
7524;BME280;3803;51.666;7.630;2023-03-16T00:41:18;101382.53;;;0.51;60.01
7524;BME280;3803;51.666;7.630;2023-03-16T00:41:40;101374.56;;;0.48;59.94
7524;BME280;3803;51.666;7.630;2023-03-16T00:42:02;101394.81;;;0.56;60.09
7524;BME280;3803;51.666;7.630;2023-03-16T00:42:26;101374.47;;;0.47;60.04
7524;BME280;3803;51.666;7.630;2023-03-16T00:42:47;101379.16;;;0.52;60.11
7524;BME280;3803;51.666;7.630;2023-03-16T00:43:07;101380.81;;;0.52;60.09
7524;BME280;3803;51.666;7.630;2023-03-16T00:43:30;101369.97;;;0.44;59.84
7524;BME280;3803;51.666;7.630;2023-03-16T00:43:50;101377.91;;;0.47;59.85
7524;BME280;3803;51.666;7.630;2023-03-16T00:44:13;101376.59;;;0.52;60.31
7524;BME280;3803;51.666;7.630;2023-03-16T00:44:35;101382.75;;;0.55;59.79
7524;BME280;3803;51.666;7.630;2023-03-16T00:44:57;101364.06;;;0.45;60.12
7524;BME280;3803;51.666;7.630;2023-03-16T00:45:18;101383.53;;;0.53;60.36
7524;BME280;3803;51.666;7.630;2023-03-16T00:45:38;101374.19;;;0.44;60.33
7524;BME280;3803;51.666;7.630;2023-03-16T00:46:00;101374.09;;;0.42;60.17
7524;BME280;3803;51.666;7.630;2023-03-16T00:46:25;101375.19;;;0.46;60.30
7524;BME280;3803;51.666;7.630;2023-03-16T00:46:47;101369.19;;;0.45;60.21
7524;BME280;3803;51.666;7.630;2023-03-16T00:47:07;101369.97;;;0.44;60.18
7524;BME280;3803;51.666;7.630;2023-03-16T00:47:30;101371.63;;;0.44;60.37
7524;BME280;3803;51.666;7.630;2023-03-16T00:47:50;101359.06;;;0.36;60.27
7524;BME280;3803;51.666;7.630;2023-03-16T00:48:13;101357.94;;;0.33;60.57
7524;BME280;3803;51.666;7.630;2023-03-16T00:48:35;101366.91;;;0.38;60.26
7524;BME280;3803;51.666;7.630;2023-03-16T00:48:56;101359.50;;;0.31;60.27
7524;BME280;3803;51.666;7.630;2023-03-16T00:49:16;101359.72;;;0.34;60.37
7524;BME280;3803;51.666;7.630;2023-03-16T00:49:57;101379.88;;;0.39;60.59
7524;BME280;3803;51.666;7.630;2023-03-16T00:50:18;101386.66;;;0.39;60.47
7524;BME280;3803;51.666;7.630;2023-03-16T00:50:41;101380.53;;;0.37;60.55
7524;BME280;3803;51.666;7.630;2023-03-16T00:51:04;101379.63;;;0.36;60.78
7524;BME280;3803;51.666;7.630;2023-03-16T00:51:25;101356.56;;;0.26;60.39
7524;BME280;3803;51.666;7.630;2023-03-16T00:51:46;101363.72;;;0.30;60.63
7524;BME280;3803;51.666;7.630;2023-03-16T00:52:08;101367.75;;;0.27;61.06
7524;BME280;3803;51.666;7.630;2023-03-16T00:52:29;101381.31;;;0.36;60.76
7524;BME280;3803;51.666;7.630;2023-03-16T00:52:51;101355.91;;;0.29;60.59
7524;BME280;3803;51.666;7.630;2023-03-16T00:53:13;101361.06;;;0.29;60.62
7524;BME280;3803;51.666;7.630;2023-03-16T00:53:34;101369.34;;;0.36;60.66
7524;BME280;3803;51.666;7.630;2023-03-16T00:53:55;101363.34;;;0.36;60.49
7524;BME280;3803;51.666;7.630;2023-03-16T00:54:16;101356.41;;;0.35;60.66
7524;BME280;3803;51.666;7.630;2023-03-16T00:54:49;101356.41;;;0.35;60.48
7524;BME280;3803;51.666;7.630;2023-03-16T00:55:12;101356.41;;;0.35;60.57
7524;BME280;3803;51.666;7.630;2023-03-16T00:55:32;101366.91;;;0.38;60.40
7524;BME280;3803;51.666;7.630;2023-03-16T00:56:06;101360.63;;;0.34;60.42
7524;BME280;3803;51.666;7.630;2023-03-16T00:56:27;101381.13;;;0.45;60.47
7524;BME280;3803;51.666;7.630;2023-03-16T00:56:48;101359.84;;;0.35;60.32
7524;BME280;3803;51.666;7.630;2023-03-16T00:57:11;101349.22;;;0.31;60.32
7524;BME280;3803;51.666;7.630;2023-03-16T00:57:31;101369.13;;;0.33;60.35
7524;BME280;3803;51.666;7.630;2023-03-16T00:57:52;101361.25;;;0.42;60.45
7524;BME280;3803;51.666;7.630;2023-03-16T00:58:13;101361.91;;;0.62;60.20
7524;BME280;3803;51.666;7.630;2023-03-16T00:59:00;101386.16;;;0.88;59.41
7524;BME280;3803;51.666;7.630;2023-03-16T00:59:27;101369.38;;;0.81;59.03
7524;BME280;3803;51.666;7.630;2023-03-16T00:59:48;101385.63;;;0.92;58.63
7524;BME280;3803;51.666;7.630;2023-03-16T01:00:09;101358.31;;;0.82;58.95
7524;BME280;3803;51.666;7.630;2023-03-16T01:00:34;101369.50;;;0.83;58.53
7524;BME280;3803;51.666;7.630;2023-03-16T01:00:56;101369.50;;;0.83;58.23
7524;BME280;3803;51.666;7.630;2023-03-16T01:01:19;101366.25;;;0.85;58.11
7524;BME280;3803;51.666;7.630;2023-03-16T01:01:40;101370.72;;;0.88;58.35
7524;BME280;3803;51.666;7.630;2023-03-16T01:02:01;101373.84;;;0.84;58.08
7524;BME280;3803;51.666;7.630;2023-03-16T01:02:22;101372.06;;;0.83;58.29
7524;BME280;3803;51.666;7.630;2023-03-16T01:02:44;101368.81;;;0.85;57.70
7524;BME280;3803;51.666;7.630;2023-03-16T01:03:04;101367.38;;;0.89;57.80
7524;BME280;3803;51.666;7.630;2023-03-16T01:03:40;101379.28;;;0.99;57.54
7524;BME280;3803;51.666;7.630;2023-03-16T01:04:08;101366.84;;;0.93;57.83
7524;BME280;3803;51.666;7.630;2023-03-16T01:04:28;101376.56;;;0.97;57.87
7524;BME280;3803;51.666;7.630;2023-03-16T01:04:50;101364.50;;;0.96;57.57
7524;BME280;3803;51.666;7.630;2023-03-16T01:05:13;101372.34;;;0.98;57.60
7524;BME280;3803;51.666;7.630;2023-03-16T01:05:38;101373.25;;;0.98;57.77
7524;BME280;3803;51.666;7.630;2023-03-16T01:06:06;101368.34;;;1.01;57.63
7524;BME280;3803;51.666;7.630;2023-03-16T01:06:29;101379.31;;;1.11;57.75
7524;BME280;3803;51.666;7.630;2023-03-16T01:06:51;101371.13;;;1.04;57.48
7524;BME280;3803;51.666;7.630;2023-03-16T01:07:13;101378.66;;;1.13;57.76
7524;BME280;3803;51.666;7.630;2023-03-16T01:07:34;101371.38;;;1.07;57.44
7524;BME280;3803;51.666;7.630;2023-03-16T01:07:55;101381.88;;;1.11;57.71
7524;BME280;3803;51.666;7.630;2023-03-16T01:08:17;101359.06;;;1.03;57.45
7524;BME280;3803;51.666;7.630;2023-03-16T01:08:39;101361.41;;;1.00;57.55
7524;BME280;3803;51.666;7.630;2023-03-16T01:09:01;101375.47;;;1.05;57.40
7524;BME280;3803;51.666;7.630;2023-03-16T01:09:24;101357.91;;;1.00;57.78
7524;BME280;3803;51.666;7.630;2023-03-16T01:09:45;101374.47;;;1.03;57.41
7524;BME280;3803;51.666;7.630;2023-03-16T01:10:06;101388.03;;;1.13;57.48
7524;BME280;3803;51.666;7.630;2023-03-16T01:10:27;101373.47;;;1.01;57.50
7524;BME280;3803;51.666;7.630;2023-03-16T01:10:48;101362.97;;;0.98;57.55
7524;BME280;3803;51.666;7.630;2023-03-16T01:11:22;101379.09;;;1.07;57.64
7524;BME280;3803;51.666;7.630;2023-03-16T01:11:43;101382.44;;;1.06;57.57
7524;BME280;3803;51.666;7.630;2023-03-16T01:12:09;101391.38;;;1.12;57.71
7524;BME280;3803;51.666;7.630;2023-03-16T01:12:30;101369.91;;;0.99;57.55
7524;BME280;3803;51.666;7.630;2023-03-16T01:12:51;101359.63;;;0.99;57.27
7524;BME280;3803;51.666;7.630;2023-03-16T01:13:27;101381.41;;;1.04;57.48
7524;BME280;3803;51.666;7.630;2023-03-16T01:13:49;101377.03;;;1.03;57.50
7524;BME280;3803;51.666;7.630;2023-03-16T01:14:23;101378.84;;;1.04;57.51
7524;BME280;3803;51.666;7.630;2023-03-16T01:14:44;101386.91;;;1.09;57.61
7524;BME280;3803;51.666;7.630;2023-03-16T01:15:06;101382.44;;;1.06;57.73
7524;BME280;3803;51.666;7.630;2023-03-16T01:15:26;101374.13;;;0.99;57.88
7524;BME280;3803;51.666;7.630;2023-03-16T01:15:51;101395.38;;;1.08;57.99
7524;BME280;3803;51.666;7.630;2023-03-16T01:16:12;101366.84;;;0.93;57.88
7524;BME280;3803;51.666;7.630;2023-03-16T01:16:32;101375.03;;;0.99;57.74
7524;BME280;3803;51.666;7.630;2023-03-16T01:16:53;101365.06;;;0.92;57.85
7524;BME280;3803;51.666;7.630;2023-03-16T01:17:15;101373.00;;;0.95;57.51
7524;BME280;3803;51.666;7.630;2023-03-16T01:17:36;101390.91;;;1.05;57.98
7524;BME280;3803;51.666;7.630;2023-03-16T01:17:57;101389.81;;;1.02;57.74
7524;BME280;3803;51.666;7.630;2023-03-16T01:18:17;101373.56;;;0.91;57.97
7524;BME280;3803;51.666;7.630;2023-03-16T01:18:45;101374.56;;;0.93;57.68
7524;BME280;3803;51.666;7.630;2023-03-16T01:19:06;101379.03;;;0.96;57.81
7524;BME280;3803;51.666;7.630;2023-03-16T01:19:27;101380.84;;;0.97;57.56
7524;BME280;3803;51.666;7.630;2023-03-16T01:19:48;101393.47;;;1.05;57.72
7524;BME280;3803;51.666;7.630;2023-03-16T01:20:10;101374.78;;;0.96;57.67
7524;BME280;3803;51.666;7.630;2023-03-16T01:20:32;101375.91;;;1.00;57.80
7524;BME280;3803;51.666;7.630;2023-03-16T01:20:53;101374.00;;;0.97;58.23
7524;BME280;3803;51.666;7.630;2023-03-16T01:21:13;101366.97;;;0.94;58.30
7524;BME280;3803;51.666;7.630;2023-03-16T01:21:34;101369.66;;;0.96;57.88
7524;BME280;3803;51.666;7.630;2023-03-16T01:21:57;101387.81;;;1.10;58.17
7524;BME280;3803;51.666;7.630;2023-03-16T01:22:18;101373.25;;;0.98;58.15
7524;BME280;3803;51.666;7.630;2023-03-16T01:22:39;101372.47;;;0.99;58.06
7524;BME280;3803;51.666;7.630;2023-03-16T01:22:59;101393.72;;;1.08;57.98
7524;BME280;3803;51.666;7.630;2023-03-16T01:23:20;101372.56;;;1.01;57.99
7524;BME280;3803;51.666;7.630;2023-03-16T01:24:08;101392.16;;;1.11;57.92
7524;BME280;3803;51.666;7.630;2023-03-16T01:24:30;101374.78;;;0.96;57.74
7524;BME280;3803;51.666;7.630;2023-03-16T01:24:50;101387.09;;;1.00;57.71
7524;BME280;3803;51.666;7.630;2023-03-16T01:25:11;101389.91;;;1.03;57.95
7524;BME280;3803;51.666;7.630;2023-03-16T01:25:35;101383.75;;;1.01;57.69
7524;BME280;3803;51.666;7.630;2023-03-16T01:25:56;101398.88;;;1.08;57.97
7524;BME280;3803;51.666;7.630;2023-03-16T01:26:17;101385.31;;;0.99;57.77
7524;BME280;3803;51.666;7.630;2023-03-16T01:26:40;101380.97;;;0.98;57.77
7524;BME280;3803;51.666;7.630;2023-03-16T01:27:01;101381.25;;;0.91;57.93
7524;BME280;3803;51.666;7.630;2023-03-16T01:27:22;101379.88;;;0.84;58.24
7524;BME280;3803;51.666;7.630;2023-03-16T01:27:54;101381.56;;;0.84;58.40
7524;BME280;3803;51.666;7.630;2023-03-16T01:28:15;101393.97;;;0.89;58.54
7524;BME280;3803;51.666;7.630;2023-03-16T01:28:51;101394.41;;;0.84;58.72
7524;BME280;3803;51.666;7.630;2023-03-16T01:29:13;101381.88;;;0.76;58.47
7524;BME280;3803;51.666;7.630;2023-03-16T01:29:34;101381.88;;;0.76;58.50
7524;BME280;3803;51.666;7.630;2023-03-16T01:29:55;101377.97;;;0.81;58.48
7524;BME280;3803;51.666;7.630;2023-03-16T01:30:16;101374.72;;;0.84;58.31
7524;BME280;3803;51.666;7.630;2023-03-16T01:30:37;101386.63;;;0.94;58.57
7524;BME280;3803;51.666;7.630;2023-03-16T01:31:00;101381.25;;;0.91;58.41
7524;BME280;3803;51.666;7.630;2023-03-16T01:31:21;101383.28;;;0.95;57.96
7524;BME280;3803;51.666;7.630;2023-03-16T01:31:42;101363.81;;;0.87;58.38
7524;BME280;3803;51.666;7.630;2023-03-16T01:32:03;101380.97;;;0.98;58.18
7524;BME280;3803;51.666;7.630;2023-03-16T01:32:24;101364.72;;;0.87;58.35
7524;BME280;3803;51.666;7.630;2023-03-16T01:32:44;101365.72;;;0.89;58.45
7524;BME280;3803;51.666;7.630;2023-03-16T01:33:07;101378.63;;;1.01;58.40
7524;BME280;3803;51.666;7.630;2023-03-16T01:33:28;101375.91;;;1.00;58.33
7524;BME280;3803;51.666;7.630;2023-03-16T01:33:49;101349.94;;;0.85;58.33
7524;BME280;3803;51.666;7.630;2023-03-16T01:34:15;101367.63;;;0.92;58.13
7524;BME280;3803;51.666;7.630;2023-03-16T01:34:38;101352.88;;;0.89;58.56
7524;BME280;3803;51.666;7.630;2023-03-16T01:34:59;101358.34;;;0.94;58.10
7524;BME280;3803;51.666;7.630;2023-03-16T01:35:25;101359.91;;;0.92;58.31
7524;BME280;3803;51.666;7.630;2023-03-16T01:36:21;101370.78;;;1.00;58.17
7524;BME280;3803;51.666;7.630;2023-03-16T01:36:50;101356.56;;;0.93;58.22
7524;BME280;3803;51.666;7.630;2023-03-16T01:37:19;101348.63;;;0.90;58.27
7524;BME280;3803;51.666;7.630;2023-03-16T01:37:52;101355.56;;;0.91;58.17
7524;BME280;3803;51.666;7.630;2023-03-16T01:38:17;101366.97;;;0.94;58.53
7524;BME280;3803;51.666;7.630;2023-03-16T01:38:38;101351.97;;;0.89;58.49
7524;BME280;3803;51.666;7.630;2023-03-16T01:38:59;101348.38;;;0.87;58.55
7524;BME280;3803;51.666;7.630;2023-03-16T01:39:22;101355.78;;;0.94;58.46
7524;BME280;3803;51.666;7.630;2023-03-16T01:39:43;101361.72;;;0.93;58.44
7524;BME280;3803;51.666;7.630;2023-03-16T01:40:04;101348.50;;;0.88;58.56
7524;BME280;3803;51.666;7.630;2023-03-16T01:40:26;101359.13;;;0.93;58.66
7524;BME280;3803;51.666;7.630;2023-03-16T01:40:48;101360.69;;;0.91;58.36
7524;BME280;3803;51.666;7.630;2023-03-16T01:41:11;101354.00;;;0.93;58.79
7524;BME280;3803;51.666;7.630;2023-03-16T01:41:32;101354.19;;;0.84;58.53
7524;BME280;3803;51.666;7.630;2023-03-16T01:41:52;101338.66;;;0.83;58.83
7524;BME280;3803;51.666;7.630;2023-03-16T01:42:13;101346.38;;;0.83;58.72
7524;BME280;3803;51.666;7.630;2023-03-16T01:43:01;101332.47;;;0.80;58.57
7524;BME280;3803;51.666;7.630;2023-03-16T01:43:26;101335.06;;;0.80;58.67
7524;BME280;3803;51.666;7.630;2023-03-16T01:43:49;101343.03;;;0.84;58.99
7524;BME280;3803;51.666;7.630;2023-03-16T01:44:13;101342.59;;;0.89;58.79
7524;BME280;3803;51.666;7.630;2023-03-16T01:44:56;101325.56;;;0.79;59.10
7524;BME280;3803;51.666;7.630;2023-03-16T01:46:27;101323.47;;;0.86;58.65
7524;BME280;3803;51.666;7.630;2023-03-16T01:46:49;101335.00;;;0.91;58.71
7524;BME280;3803;51.666;7.630;2023-03-16T01:47:10;101318.84;;;0.81;58.86
7524;BME280;3803;51.666;7.630;2023-03-16T01:47:32;101319.09;;;0.85;58.69
7524;BME280;3803;51.666;7.630;2023-03-16T01:47:59;101331.81;;;0.83;58.61
7524;BME280;3803;51.666;7.630;2023-03-16T01:48:24;101328.94;;;0.90;58.87
7524;BME280;3803;51.666;7.630;2023-03-16T01:49:30;101342.75;;;1.03;58.85
7524;BME280;3803;51.666;7.630;2023-03-16T01:49:55;101342.75;;;1.03;58.84
7524;BME280;3803;51.666;7.630;2023-03-16T01:50:18;101326.97;;;0.98;58.74
7524;BME280;3803;51.666;7.630;2023-03-16T01:50:40;101338.50;;;1.03;58.99
7524;BME280;3803;51.666;7.630;2023-03-16T01:51:08;101320.81;;;0.96;58.70
7524;BME280;3803;51.666;7.630;2023-03-16T01:52:29;101331.69;;;1.04;58.52
7524;BME280;3803;51.666;7.630;2023-03-16T01:52:52;101331.03;;;1.06;58.60
7524;BME280;3803;51.666;7.630;2023-03-16T01:53:14;101327.91;;;1.11;58.33
7524;BME280;3803;51.666;7.630;2023-03-16T01:53:35;101330.59;;;1.12;58.94
7524;BME280;3803;51.666;7.630;2023-03-16T01:53:59;101327.91;;;1.11;58.49
7524;BME280;3803;51.666;7.630;2023-03-16T01:54:33;101334.38;;;1.17;58.93
7524;BME280;3803;51.666;7.630;2023-03-16T01:55:07;101321.19;;;1.13;58.62
7524;BME280;3803;51.666;7.630;2023-03-16T01:55:33;101324.09;;;1.17;58.62
7524;BME280;3803;51.666;7.630;2023-03-16T01:55:53;101312.72;;;1.14;58.55
7524;BME280;3803;51.666;7.630;2023-03-16T01:56:21;101329.94;;;1.15;58.88
7524;BME280;3803;51.666;7.630;2023-03-16T01:57:26;101334.19;;;1.26;58.50
7524;BME280;3803;51.666;7.630;2023-03-16T01:57:50;101330.63;;;1.24;58.67
7524;BME280;3803;51.666;7.630;2023-03-16T01:58:11;101337.75;;;1.28;58.34
7524;BME280;3803;51.666;7.630;2023-03-16T01:58:35;101324.22;;;1.19;58.48
7524;BME280;3803;51.666;7.630;2023-03-16T01:58:58;101342.91;;;1.28;58.38
7524;BME280;3803;51.666;7.630;2023-03-16T01:59:26;101341.78;;;1.25;58.86
7524;BME280;3803;51.666;7.630;2023-03-16T01:59:54;101329.16;;;1.16;58.53
7524;BME280;3803;51.666;7.630;2023-03-16T02:00:19;101341.13;;;1.27;58.59
7524;BME280;3803;51.666;7.630;2023-03-16T02:01:02;101328.38;;;1.29;58.48
7524;BME280;3803;51.666;7.630;2023-03-16T02:01:25;101338.00;;;1.31;58.40
7524;BME280;3803;51.666;7.630;2023-03-16T02:01:47;101325.22;;;1.21;58.52
7524;BME280;3803;51.666;7.630;2023-03-16T02:02:12;101341.47;;;1.32;58.30
7524;BME280;3803;51.666;7.630;2023-03-16T02:02:34;101315.84;;;1.21;58.41
7524;BME280;3803;51.666;7.630;2023-03-16T02:02:57;101343.38;;;1.34;58.85
7524;BME280;3803;51.666;7.630;2023-03-16T02:03:40;101346.94;;;1.36;58.63
7524;BME280;3803;51.666;7.630;2023-03-16T02:04:19;101346.94;;;1.36;58.58
7524;BME280;3803;51.666;7.630;2023-03-16T02:04:53;101343.63;;;1.38;58.71
7524;BME280;3803;51.666;7.630;2023-03-16T02:05:34;101327.94;;;1.34;58.33
7524;BME280;3803;51.666;7.630;2023-03-16T02:06:00;101324.13;;;1.29;58.58
7524;BME280;3803;51.666;7.630;2023-03-16T02:06:25;101336.78;;;1.38;58.27
7524;BME280;3803;51.666;7.630;2023-03-16T02:06:49;101330.84;;;1.39;58.38
7524;BME280;3803;51.666;7.630;2023-03-16T02:07:09;101323.38;;;1.30;58.43
7524;BME280;3803;51.666;7.630;2023-03-16T02:07:34;101324.84;;;1.39;58.17
7524;BME280;3803;51.666;7.630;2023-03-16T02:07:57;101315.88;;;1.33;58.46
7524;BME280;3803;51.666;7.630;2023-03-16T02:08:20;101315.88;;;1.33;58.43
7524;BME280;3803;51.666;7.630;2023-03-16T02:08:43;101304.56;;;1.31;58.75
7524;BME280;3803;51.666;7.630;2023-03-16T02:09:05;101311.38;;;1.31;58.06
7524;BME280;3803;51.666;7.630;2023-03-16T02:09:26;101312.50;;;1.34;58.59
7524;BME280;3803;51.666;7.630;2023-03-16T02:09:50;101309.16;;;1.35;58.29
7524;BME280;3803;51.666;7.630;2023-03-16T02:10:14;101312.75;;;1.38;58.38
7524;BME280;3803;51.666;7.630;2023-03-16T02:10:39;101309.16;;;1.35;58.17